sensor_id;sensor_type;location;lat;lon;timestamp;P1;durP1;ratioP1;P2;durP2;ratioP2
13173;SDS011;6652;48.802;9.190;2023-04-16T00:00:39;24.05;;;17.25;;
13173;SDS011;6652;48.802;9.190;2023-04-16T00:03:06;22.05;;;15.90;;
13173;SDS011;6652;48.802;9.190;2023-04-16T00:05:33;22.63;;;16.83;;
13173;SDS011;6652;48.802;9.190;2023-04-16T00:07:59;22.67;;;16.88;;
13173;SDS011;6652;48.802;9.190;2023-04-16T00:10:27;21.15;;;15.52;;
13173;SDS011;6652;48.802;9.190;2023-04-16T00:12:53;21.42;;;16.95;;
13173;SDS011;6652;48.802;9.190;2023-04-16T00:15:22;22.05;;;16.23;;
13173;SDS011;6652;48.802;9.190;2023-04-16T00:17:49;20.38;;;16.05;;
13173;SDS011;6652;48.802;9.190;2023-04-16T00:20:15;21.00;;;16.00;;
13173;SDS011;6652;48.802;9.190;2023-04-16T00:22:44;20.25;;;16.17;;
13173;SDS011;6652;48.802;9.190;2023-04-16T00:25:11;21.75;;;16.38;;
13173;SDS011;6652;48.802;9.190;2023-04-16T00:27:38;22.58;;;16.95;;
13173;SDS011;6652;48.802;9.190;2023-04-16T00:30:05;23.77;;;17.17;;
13173;SDS011;6652;48.802;9.190;2023-04-16T00:32:34;21.38;;;15.90;;
13173;SDS011;6652;48.802;9.190;2023-04-16T00:35:01;22.75;;;16.48;;
13173;SDS011;6652;48.802;9.190;2023-04-16T00:37:29;23.05;;;16.85;;
13173;SDS011;6652;48.802;9.190;2023-04-16T00:39:55;22.80;;;16.85;;
13173;SDS011;6652;48.802;9.190;2023-04-16T00:42:22;19.92;;;15.35;;
13173;SDS011;6652;48.802;9.190;2023-04-16T00:44:49;24.48;;;16.83;;
13173;SDS011;6652;48.802;9.190;2023-04-16T00:47:16;22.73;;;16.92;;
13173;SDS011;6652;48.802;9.190;2023-04-16T00:49:46;20.52;;;15.27;;
13173;SDS011;6652;48.802;9.190;2023-04-16T00:52:13;21.02;;;16.13;;
13173;SDS011;6652;48.802;9.190;2023-04-16T00:54:40;21.38;;;15.20;;
13173;SDS011;6652;48.802;9.190;2023-04-16T00:57:07;23.15;;;15.68;;
13173;SDS011;6652;48.802;9.190;2023-04-16T00:59:34;21.30;;;15.38;;
13173;SDS011;6652;48.802;9.190;2023-04-16T01:02:01;23.45;;;16.52;;
13173;SDS011;6652;48.802;9.190;2023-04-16T01:04:28;20.27;;;15.10;;
13173;SDS011;6652;48.802;9.190;2023-04-16T01:06:56;19.05;;;15.20;;
13173;SDS011;6652;48.802;9.190;2023-04-16T01:09:23;21.80;;;15.40;;
13173;SDS011;6652;48.802;9.190;2023-04-16T01:11:50;20.92;;;15.52;;
13173;SDS011;6652;48.802;9.190;2023-04-16T01:14:17;20.60;;;15.63;;
13173;SDS011;6652;48.802;9.190;2023-04-16T01:16:43;22.20;;;15.93;;
13173;SDS011;6652;48.802;9.190;2023-04-16T01:19:10;20.35;;;14.85;;
13173;SDS011;6652;48.802;9.190;2023-04-16T01:21:38;22.15;;;16.35;;
13173;SDS011;6652;48.802;9.190;2023-04-16T01:24:05;20.90;;;15.38;;
13173;SDS011;6652;48.802;9.190;2023-04-16T01:26:32;18.92;;;13.98;;
13173;SDS011;6652;48.802;9.190;2023-04-16T01:29:06;22.77;;;15.20;;
13173;SDS011;6652;48.802;9.190;2023-04-16T01:31:33;21.05;;;14.98;;
13173;SDS011;6652;48.802;9.190;2023-04-16T01:34:00;18.63;;;14.20;;
13173;SDS011;6652;48.802;9.190;2023-04-16T01:36:27;17.63;;;13.63;;
13173;SDS011;6652;48.802;9.190;2023-04-16T01:38:55;17.52;;;13.10;;
13173;SDS011;6652;48.802;9.190;2023-04-16T01:41:21;17.58;;;13.52;;
13173;SDS011;6652;48.802;9.190;2023-04-16T01:43:48;16.85;;;12.60;;
13173;SDS011;6652;48.802;9.190;2023-04-16T01:46:17;20.85;;;14.15;;
13173;SDS011;6652;48.802;9.190;2023-04-16T01:48:45;18.25;;;13.32;;
13173;SDS011;6652;48.802;9.190;2023-04-16T01:51:12;16.85;;;13.00;;
13173;SDS011;6652;48.802;9.190;2023-04-16T01:53:39;14.85;;;11.75;;
13173;SDS011;6652;48.802;9.190;2023-04-16T01:56:07;17.08;;;12.52;;
13173;SDS011;6652;48.802;9.190;2023-04-16T01:58:34;18.52;;;13.50;;
13173;SDS011;6652;48.802;9.190;2023-04-16T02:01:01;15.50;;;12.32;;
13173;SDS011;6652;48.802;9.190;2023-04-16T02:03:28;16.45;;;12.43;;
13173;SDS011;6652;48.802;9.190;2023-04-16T02:05:56;18.33;;;12.93;;
13173;SDS011;6652;48.802;9.190;2023-04-16T02:08:22;15.85;;;12.68;;
13173;SDS011;6652;48.802;9.190;2023-04-16T02:10:49;16.27;;;13.20;;
13173;SDS011;6652;48.802;9.190;2023-04-16T02:13:19;16.08;;;12.88;;
13173;SDS011;6652;48.802;9.190;2023-04-16T02:15:46;15.88;;;12.70;;
13173;SDS011;6652;48.802;9.190;2023-04-16T02:18:13;18.80;;;13.80;;
13173;SDS011;6652;48.802;9.190;2023-04-16T02:20:41;17.48;;;12.77;;
13173;SDS011;6652;48.802;9.190;2023-04-16T02:23:08;22.23;;;15.32;;
13173;SDS011;6652;48.802;9.190;2023-04-16T02:25:39;18.48;;;14.02;;
13173;SDS011;6652;48.802;9.190;2023-04-16T02:28:06;20.67;;;14.05;;
13173;SDS011;6652;48.802;9.190;2023-04-16T02:30:34;18.30;;;13.88;;
13173;SDS011;6652;48.802;9.190;2023-04-16T02:33:02;16.38;;;13.40;;
13173;SDS011;6652;48.802;9.190;2023-04-16T02:35:29;19.02;;;13.80;;
13173;SDS011;6652;48.802;9.190;2023-04-16T02:37:56;18.98;;;14.20;;
13173;SDS011;6652;48.802;9.190;2023-04-16T02:40:23;17.55;;;13.68;;
13173;SDS011;6652;48.802;9.190;2023-04-16T02:42:50;18.40;;;14.10;;
13173;SDS011;6652;48.802;9.190;2023-04-16T02:45:17;20.90;;;14.25;;
13173;SDS011;6652;48.802;9.190;2023-04-16T02:47:45;20.63;;;14.63;;
13173;SDS011;6652;48.802;9.190;2023-04-16T02:50:12;21.27;;;15.00;;
13173;SDS011;6652;48.802;9.190;2023-04-16T02:52:39;21.20;;;14.88;;
13173;SDS011;6652;48.802;9.190;2023-04-16T02:55:06;19.92;;;14.25;;
13173;SDS011;6652;48.802;9.190;2023-04-16T02:57:34;19.67;;;14.52;;
13173;SDS011;6652;48.802;9.190;2023-04-16T03:00:00;22.38;;;15.52;;
13173;SDS011;6652;48.802;9.190;2023-04-16T03:02:28;20.15;;;14.82;;
13173;SDS011;6652;48.802;9.190;2023-04-16T03:04:56;21.75;;;14.93;;
13173;SDS011;6652;48.802;9.190;2023-04-16T03:07:23;20.20;;;13.98;;
13173;SDS011;6652;48.802;9.190;2023-04-16T03:09:50;20.73;;;14.18;;
13173;SDS011;6652;48.802;9.190;2023-04-16T03:12:17;21.95;;;15.18;;
13173;SDS011;6652;48.802;9.190;2023-04-16T03:14:44;20.50;;;14.93;;
13173;SDS011;6652;48.802;9.190;2023-04-16T03:17:11;24.52;;;15.38;;
13173;SDS011;6652;48.802;9.190;2023-04-16T03:19:38;21.30;;;14.45;;
13173;SDS011;6652;48.802;9.190;2023-04-16T03:22:06;22.88;;;15.20;;
13173;SDS011;6652;48.802;9.190;2023-04-16T03:24:32;25.17;;;16.05;;
13173;SDS011;6652;48.802;9.190;2023-04-16T03:26:59;23.13;;;15.82;;
13173;SDS011;6652;48.802;9.190;2023-04-16T03:29:27;23.60;;;16.63;;
13173;SDS011;6652;48.802;9.190;2023-04-16T03:31:54;22.73;;;15.68;;
13173;SDS011;6652;48.802;9.190;2023-04-16T03:34:20;21.75;;;15.82;;
13173;SDS011;6652;48.802;9.190;2023-04-16T03:36:47;26.85;;;17.98;;
13173;SDS011;6652;48.802;9.190;2023-04-16T03:39:15;26.63;;;17.23;;
13173;SDS011;6652;48.802;9.190;2023-04-16T03:41:42;23.10;;;16.52;;
13173;SDS011;6652;48.802;9.190;2023-04-16T03:44:09;26.65;;;16.70;;
13173;SDS011;6652;48.802;9.190;2023-04-16T03:46:36;26.35;;;17.67;;
13173;SDS011;6652;48.802;9.190;2023-04-16T03:49:02;26.50;;;17.75;;
13173;SDS011;6652;48.802;9.190;2023-04-16T03:51:29;23.05;;;16.92;;
13173;SDS011;6652;48.802;9.190;2023-04-16T03:53:56;25.70;;;16.70;;
13173;SDS011;6652;48.802;9.190;2023-04-16T03:56:24;25.60;;;17.38;;
13173;SDS011;6652;48.802;9.190;2023-04-16T03:58:51;26.13;;;17.55;;
13173;SDS011;6652;48.802;9.190;2023-04-16T04:01:18;25.67;;;17.38;;
13173;SDS011;6652;48.802;9.190;2023-04-16T04:03:45;30.83;;;18.55;;
13173;SDS011;6652;48.802;9.190;2023-04-16T04:06:12;27.60;;;18.48;;
13173;SDS011;6652;48.802;9.190;2023-04-16T04:08:38;27.88;;;18.30;;
13173;SDS011;6652;48.802;9.190;2023-04-16T04:11:05;28.40;;;17.55;;
13173;SDS011;6652;48.802;9.190;2023-04-16T04:13:33;26.83;;;17.58;;
13173;SDS011;6652;48.802;9.190;2023-04-16T04:16:00;25.45;;;16.73;;
13173;SDS011;6652;48.802;9.190;2023-04-16T04:18:27;25.35;;;17.40;;
13173;SDS011;6652;48.802;9.190;2023-04-16T04:20:54;28.90;;;18.15;;
13173;SDS011;6652;48.802;9.190;2023-04-16T04:23:21;25.25;;;17.85;;
13173;SDS011;6652;48.802;9.190;2023-04-16T04:25:47;29.58;;;18.50;;
13173;SDS011;6652;48.802;9.190;2023-04-16T04:28:14;28.05;;;17.65;;
13173;SDS011;6652;48.802;9.190;2023-04-16T04:30:43;24.20;;;17.30;;
13173;SDS011;6652;48.802;9.190;2023-04-16T04:33:09;21.95;;;15.50;;
13173;SDS011;6652;48.802;9.190;2023-04-16T04:35:36;25.70;;;16.88;;
13173;SDS011;6652;48.802;9.190;2023-04-16T04:38:03;25.00;;;16.88;;
13173;SDS011;6652;48.802;9.190;2023-04-16T04:40:30;25.00;;;16.40;;
13173;SDS011;6652;48.802;9.190;2023-04-16T04:42:57;23.55;;;16.00;;
13173;SDS011;6652;48.802;9.190;2023-04-16T04:45:24;26.77;;;16.50;;
13173;SDS011;6652;48.802;9.190;2023-04-16T04:47:52;30.33;;;16.85;;
13173;SDS011;6652;48.802;9.190;2023-04-16T04:50:19;24.98;;;16.48;;
13173;SDS011;6652;48.802;9.190;2023-04-16T04:52:46;27.17;;;17.10;;
13173;SDS011;6652;48.802;9.190;2023-04-16T04:55:13;26.13;;;16.40;;
13173;SDS011;6652;48.802;9.190;2023-04-16T04:57:40;23.75;;;15.90;;
13173;SDS011;6652;48.802;9.190;2023-04-16T05:00:07;26.75;;;16.02;;
13173;SDS011;6652;48.802;9.190;2023-04-16T05:02:34;24.45;;;16.20;;
13173;SDS011;6652;48.802;9.190;2023-04-16T05:05:04;25.83;;;16.83;;
13173;SDS011;6652;48.802;9.190;2023-04-16T05:07:31;25.30;;;16.30;;
13173;SDS011;6652;48.802;9.190;2023-04-16T05:09:58;26.63;;;15.88;;
13173;SDS011;6652;48.802;9.190;2023-04-16T05:12:25;24.60;;;16.00;;
13173;SDS011;6652;48.802;9.190;2023-04-16T05:14:51;28.95;;;17.13;;
13173;SDS011;6652;48.802;9.190;2023-04-16T05:17:18;26.02;;;16.80;;
13173;SDS011;6652;48.802;9.190;2023-04-16T05:19:45;26.73;;;17.33;;
13173;SDS011;6652;48.802;9.190;2023-04-16T05:22:13;27.33;;;15.98;;
13173;SDS011;6652;48.802;9.190;2023-04-16T05:24:42;24.95;;;15.75;;
13173;SDS011;6652;48.802;9.190;2023-04-16T05:27:10;26.38;;;15.85;;
13173;SDS011;6652;48.802;9.190;2023-04-16T05:29:37;32.63;;;18.70;;
13173;SDS011;6652;48.802;9.190;2023-04-16T05:32:04;35.65;;;20.38;;
13173;SDS011;6652;48.802;9.190;2023-04-16T05:34:33;38.88;;;22.40;;
13173;SDS011;6652;48.802;9.190;2023-04-16T05:37:00;39.83;;;21.63;;
13173;SDS011;6652;48.802;9.190;2023-04-16T05:39:29;41.67;;;24.02;;
13173;SDS011;6652;48.802;9.190;2023-04-16T05:41:55;46.80;;;25.02;;
13173;SDS011;6652;48.802;9.190;2023-04-16T05:44:25;41.08;;;24.75;;
13173;SDS011;6652;48.802;9.190;2023-04-16T05:46:52;44.90;;;27.10;;
13173;SDS011;6652;48.802;9.190;2023-04-16T05:49:22;46.75;;;26.27;;
13173;SDS011;6652;48.802;9.190;2023-04-16T05:51:49;47.55;;;27.67;;
13173;SDS011;6652;48.802;9.190;2023-04-16T05:54:30;52.97;;;28.95;;
13173;SDS011;6652;48.802;9.190;2023-04-16T05:56:56;59.05;;;30.13;;
13173;SDS011;6652;48.802;9.190;2023-04-16T05:59:25;54.20;;;30.52;;
13173;SDS011;6652;48.802;9.190;2023-04-16T06:01:53;51.10;;;29.73;;
13173;SDS011;6652;48.802;9.190;2023-04-16T06:04:20;50.60;;;28.88;;
13173;SDS011;6652;48.802;9.190;2023-04-16T06:06:46;69.05;;;32.13;;
13173;SDS011;6652;48.802;9.190;2023-04-16T06:09:13;54.45;;;30.40;;
13173;SDS011;6652;48.802;9.190;2023-04-16T06:11:42;53.53;;;30.17;;
13173;SDS011;6652;48.802;9.190;2023-04-16T06:14:13;54.92;;;31.02;;
13173;SDS011;6652;48.802;9.190;2023-04-16T06:16:41;55.28;;;29.33;;
13173;SDS011;6652;48.802;9.190;2023-04-16T06:19:08;57.33;;;31.90;;
13173;SDS011;6652;48.802;9.190;2023-04-16T06:21:35;62.17;;;32.83;;
13173;SDS011;6652;48.802;9.190;2023-04-16T06:24:04;54.92;;;30.45;;
13173;SDS011;6652;48.802;9.190;2023-04-16T06:26:31;53.13;;;29.25;;
13173;SDS011;6652;48.802;9.190;2023-04-16T06:29:01;48.78;;;29.65;;
13173;SDS011;6652;48.802;9.190;2023-04-16T06:31:28;54.45;;;30.63;;
13173;SDS011;6652;48.802;9.190;2023-04-16T06:33:56;48.63;;;29.27;;
13173;SDS011;6652;48.802;9.190;2023-04-16T06:36:23;48.42;;;28.70;;
13173;SDS011;6652;48.802;9.190;2023-04-16T06:38:51;48.08;;;28.83;;
13173;SDS011;6652;48.802;9.190;2023-04-16T06:41:18;50.20;;;28.73;;
13173;SDS011;6652;48.802;9.190;2023-04-16T06:43:51;48.58;;;29.77;;
13173;SDS011;6652;48.802;9.190;2023-04-16T06:46:19;58.42;;;29.73;;
13173;SDS011;6652;48.802;9.190;2023-04-16T06:48:46;53.38;;;31.02;;
13173;SDS011;6652;48.802;9.190;2023-04-16T06:51:13;57.65;;;30.33;;
13173;SDS011;6652;48.802;9.190;2023-04-16T06:53:40;50.03;;;29.08;;
13173;SDS011;6652;48.802;9.190;2023-04-16T06:56:10;52.92;;;30.67;;
13173;SDS011;6652;48.802;9.190;2023-04-16T06:58:37;51.38;;;30.27;;
13173;SDS011;6652;48.802;9.190;2023-04-16T07:01:04;51.80;;;29.17;;
13173;SDS011;6652;48.802;9.190;2023-04-16T07:03:32;50.92;;;29.67;;
13173;SDS011;6652;48.802;9.190;2023-04-16T07:05:59;49.67;;;28.20;;
13173;SDS011;6652;48.802;9.190;2023-04-16T07:08:26;50.92;;;28.80;;
13173;SDS011;6652;48.802;9.190;2023-04-16T07:10:53;53.33;;;29.70;;
13173;SDS011;6652;48.802;9.190;2023-04-16T07:13:20;47.38;;;28.77;;
13173;SDS011;6652;48.802;9.190;2023-04-16T07:15:47;48.60;;;27.33;;
13173;SDS011;6652;48.802;9.190;2023-04-16T07:18:17;45.00;;;27.17;;
13173;SDS011;6652;48.802;9.190;2023-04-16T07:20:46;46.10;;;28.55;;
13173;SDS011;6652;48.802;9.190;2023-04-16T07:23:14;45.50;;;27.40;;
13173;SDS011;6652;48.802;9.190;2023-04-16T07:25:44;42.15;;;26.65;;
13173;SDS011;6652;48.802;9.190;2023-04-16T07:28:29;43.97;;;26.48;;
13173;SDS011;6652;48.802;9.190;2023-04-16T07:31:21;40.97;;;24.92;;
13173;SDS011;6652;48.802;9.190;2023-04-16T08:21:43;37.78;;;22.08;;
13173;SDS011;6652;48.802;9.190;2023-04-16T08:24:18;36.97;;;22.23;;
13173;SDS011;6652;48.802;9.190;2023-04-16T08:44:33;28.00;;;18.38;;
13173;SDS011;6652;48.802;9.190;2023-04-16T08:47:12;35.90;;;21.73;;
13173;SDS011;6652;48.802;9.190;2023-04-16T08:49:49;29.75;;;18.85;;
13173;SDS011;6652;48.802;9.190;2023-04-16T08:55:41;29.50;;;20.02;;
13173;SDS011;6652;48.802;9.190;2023-04-16T08:58:30;29.23;;;19.38;;
13173;SDS011;6652;48.802;9.190;2023-04-16T09:04:38;26.60;;;17.88;;
13173;SDS011;6652;48.802;9.190;2023-04-16T09:07:26;28.52;;;17.90;;
13173;SDS011;6652;48.802;9.190;2023-04-16T09:10:23;25.80;;;17.30;;
13173;SDS011;6652;48.802;9.190;2023-04-16T09:13:09;27.60;;;17.25;;
13173;SDS011;6652;48.802;9.190;2023-04-16T09:19:29;31.58;;;18.50;;
13173;SDS011;6652;48.802;9.190;2023-04-16T09:22:24;24.05;;;16.58;;
13173;SDS011;6652;48.802;9.190;2023-04-16T09:25:26;26.95;;;17.10;;
13173;SDS011;6652;48.802;9.190;2023-04-16T09:38:05;31.45;;;18.55;;
13173;SDS011;6652;48.802;9.190;2023-04-16T09:44:15;33.25;;;17.98;;
13173;SDS011;6652;48.802;9.190;2023-04-16T09:47:05;31.20;;;19.52;;
13173;SDS011;6652;48.802;9.190;2023-04-16T09:59:53;31.75;;;18.75;;
13173;SDS011;6652;48.802;9.190;2023-04-16T10:02:48;31.52;;;19.17;;
13173;SDS011;6652;48.802;9.190;2023-04-16T10:15:29;40.50;;;19.55;;
13173;SDS011;6652;48.802;9.190;2023-04-16T10:18:32;31.83;;;18.52;;
13173;SDS011;6652;48.802;9.190;2023-04-16T10:21:39;31.38;;;19.55;;
13173;SDS011;6652;48.802;9.190;2023-04-16T11:13:09;23.00;;;14.20;;
13173;SDS011;6652;48.802;9.190;2023-04-16T11:16:00;24.67;;;13.93;;
13173;SDS011;6652;48.802;9.190;2023-04-16T11:19:20;20.23;;;13.52;;
13173;SDS011;6652;48.802;9.190;2023-04-16T11:22:11;21.98;;;12.45;;
13173;SDS011;6652;48.802;9.190;2023-04-16T11:24:59;24.30;;;13.20;;
13173;SDS011;6652;48.802;9.190;2023-04-16T11:31:39;19.60;;;11.73;;
13173;SDS011;6652;48.802;9.190;2023-04-16T11:38:11;17.13;;;10.98;;
13173;SDS011;6652;48.802;9.190;2023-04-16T11:41:01;17.00;;;10.00;;
13173;SDS011;6652;48.802;9.190;2023-04-16T11:47:25;15.98;;;9.85;;
13173;SDS011;6652;48.802;9.190;2023-04-16T11:56:43;14.35;;;8.88;;
13173;SDS011;6652;48.802;9.190;2023-04-16T12:02:54;12.50;;;8.55;;
13173;SDS011;6652;48.802;9.190;2023-04-16T12:05:49;10.13;;;7.25;;
13173;SDS011;6652;48.802;9.190;2023-04-16T12:09:24;10.80;;;7.32;;
13173;SDS011;6652;48.802;9.190;2023-04-16T12:11:59;11.23;;;7.30;;
13173;SDS011;6652;48.802;9.190;2023-04-16T12:28:35;9.77;;;6.03;;
13173;SDS011;6652;48.802;9.190;2023-04-16T12:31:49;10.55;;;6.55;;
13173;SDS011;6652;48.802;9.190;2023-04-16T12:38:08;9.32;;;6.38;;
13173;SDS011;6652;48.802;9.190;2023-04-16T13:01:51;9.32;;;6.47;;
13173;SDS011;6652;48.802;9.190;2023-04-16T13:04:34;12.40;;;6.65;;
13173;SDS011;6652;48.802;9.190;2023-04-16T13:07:52;10.40;;;6.90;;
13173;SDS011;6652;48.802;9.190;2023-04-16T13:11:45;10.65;;;7.22;;
13173;SDS011;6652;48.802;9.190;2023-04-16T13:14:12;9.70;;;6.82;;
13173;SDS011;6652;48.802;9.190;2023-04-16T13:20:05;11.32;;;7.55;;
13173;SDS011;6652;48.802;9.190;2023-04-16T13:23:11;12.40;;;7.80;;
13173;SDS011;6652;48.802;9.190;2023-04-16T13:25:40;13.75;;;7.65;;
13173;SDS011;6652;48.802;9.190;2023-04-16T13:28:17;12.77;;;8.77;;
13173;SDS011;6652;48.802;9.190;2023-04-16T13:30:44;13.95;;;8.75;;
13173;SDS011;6652;48.802;9.190;2023-04-16T13:33:15;13.90;;;8.77;;
13173;SDS011;6652;48.802;9.190;2023-04-16T13:35:42;11.48;;;8.23;;
13173;SDS011;6652;48.802;9.190;2023-04-16T13:38:10;13.98;;;8.68;;
13173;SDS011;6652;48.802;9.190;2023-04-16T13:40:37;11.35;;;8.20;;
13173;SDS011;6652;48.802;9.190;2023-04-16T13:43:04;11.70;;;8.00;;
13173;SDS011;6652;48.802;9.190;2023-04-16T13:45:31;14.45;;;9.25;;
13173;SDS011;6652;48.802;9.190;2023-04-16T13:47:58;12.70;;;7.95;;
13173;SDS011;6652;48.802;9.190;2023-04-16T13:50:26;14.45;;;9.02;;
13173;SDS011;6652;48.802;9.190;2023-04-16T13:52:53;13.85;;;9.32;;
13173;SDS011;6652;48.802;9.190;2023-04-16T13:55:21;12.90;;;9.07;;
13173;SDS011;6652;48.802;9.190;2023-04-16T13:57:48;14.48;;;9.93;;
13173;SDS011;6652;48.802;9.190;2023-04-16T14:00:16;17.58;;;9.65;;
13173;SDS011;6652;48.802;9.190;2023-04-16T14:02:44;14.18;;;9.63;;
13173;SDS011;6652;48.802;9.190;2023-04-16T14:05:12;16.52;;;9.93;;
13173;SDS011;6652;48.802;9.190;2023-04-16T14:07:40;14.45;;;9.48;;
13173;SDS011;6652;48.802;9.190;2023-04-16T14:10:08;14.85;;;9.88;;
13173;SDS011;6652;48.802;9.190;2023-04-16T14:12:36;16.02;;;10.52;;
13173;SDS011;6652;48.802;9.190;2023-04-16T14:15:04;19.88;;;10.95;;
13173;SDS011;6652;48.802;9.190;2023-04-16T14:17:38;15.20;;;9.93;;
13173;SDS011;6652;48.802;9.190;2023-04-16T14:20:25;19.40;;;9.45;;
13173;SDS011;6652;48.802;9.190;2023-04-16T14:24:08;16.10;;;10.77;;
13173;SDS011;6652;48.802;9.190;2023-04-16T14:26:41;16.13;;;10.90;;
13173;SDS011;6652;48.802;9.190;2023-04-16T14:29:19;17.85;;;11.23;;
13173;SDS011;6652;48.802;9.190;2023-04-16T14:31:46;18.27;;;12.45;;
13173;SDS011;6652;48.802;9.190;2023-04-16T14:34:40;20.10;;;12.48;;
13173;SDS011;6652;48.802;9.190;2023-04-16T14:37:13;18.23;;;12.00;;
13173;SDS011;6652;48.802;9.190;2023-04-16T14:39:45;19.20;;;12.15;;
13173;SDS011;6652;48.802;9.190;2023-04-16T14:44:54;18.90;;;12.07;;
13173;SDS011;6652;48.802;9.190;2023-04-16T14:47:27;23.27;;;13.70;;
13173;SDS011;6652;48.802;9.190;2023-04-16T14:50:07;21.13;;;13.68;;
13173;SDS011;6652;48.802;9.190;2023-04-16T14:52:35;18.95;;;13.55;;
13173;SDS011;6652;48.802;9.190;2023-04-16T14:55:03;22.02;;;13.45;;
13173;SDS011;6652;48.802;9.190;2023-04-16T14:57:31;22.98;;;14.60;;
13173;SDS011;6652;48.802;9.190;2023-04-16T14:59:58;21.38;;;13.88;;
13173;SDS011;6652;48.802;9.190;2023-04-16T15:05:47;23.92;;;15.25;;
13173;SDS011;6652;48.802;9.190;2023-04-16T15:08:19;23.30;;;15.40;;
13173;SDS011;6652;48.802;9.190;2023-04-16T15:10:47;25.17;;;16.77;;
13173;SDS011;6652;48.802;9.190;2023-04-16T15:13:14;26.23;;;16.58;;
13173;SDS011;6652;48.802;9.190;2023-04-16T15:15:41;29.00;;;17.63;;
13173;SDS011;6652;48.802;9.190;2023-04-16T15:18:08;37.33;;;20.20;;
13173;SDS011;6652;48.802;9.190;2023-04-16T15:20:35;29.92;;;17.90;;
13173;SDS011;6652;48.802;9.190;2023-04-16T15:23:02;33.03;;;18.52;;
13173;SDS011;6652;48.802;9.190;2023-04-16T15:25:29;33.05;;;18.83;;
13173;SDS011;6652;48.802;9.190;2023-04-16T15:27:57;31.95;;;19.45;;
13173;SDS011;6652;48.802;9.190;2023-04-16T15:30:32;34.72;;;20.08;;
13173;SDS011;6652;48.802;9.190;2023-04-16T15:32:59;33.55;;;20.08;;
13173;SDS011;6652;48.802;9.190;2023-04-16T15:35:28;32.50;;;19.52;;
13173;SDS011;6652;48.802;9.190;2023-04-16T15:38:01;37.42;;;20.52;;
13173;SDS011;6652;48.802;9.190;2023-04-16T15:40:28;30.30;;;18.95;;
13173;SDS011;6652;48.802;9.190;2023-04-16T15:42:55;31.80;;;19.95;;
13173;SDS011;6652;48.802;9.190;2023-04-16T15:45:23;30.98;;;20.38;;
13173;SDS011;6652;48.802;9.190;2023-04-16T15:47:50;31.88;;;20.05;;
13173;SDS011;6652;48.802;9.190;2023-04-16T15:50:17;35.35;;;20.70;;
13173;SDS011;6652;48.802;9.190;2023-04-16T15:52:44;32.28;;;21.15;;
13173;SDS011;6652;48.802;9.190;2023-04-16T15:55:11;61.60;;;21.98;;
13173;SDS011;6652;48.802;9.190;2023-04-16T15:57:38;38.85;;;20.88;;
13173;SDS011;6652;48.802;9.190;2023-04-16T16:00:06;34.75;;;21.17;;
13173;SDS011;6652;48.802;9.190;2023-04-16T16:02:39;37.85;;;21.30;;
13173;SDS011;6652;48.802;9.190;2023-04-16T16:05:07;36.08;;;21.77;;
13173;SDS011;6652;48.802;9.190;2023-04-16T16:07:35;37.85;;;21.63;;
13173;SDS011;6652;48.802;9.190;2023-04-16T16:10:02;38.38;;;22.33;;
13173;SDS011;6652;48.802;9.190;2023-04-16T16:12:30;40.40;;;23.63;;
13173;SDS011;6652;48.802;9.190;2023-04-16T16:14:57;37.83;;;22.40;;
13173;SDS011;6652;48.802;9.190;2023-04-16T16:17:27;41.38;;;22.70;;
13173;SDS011;6652;48.802;9.190;2023-04-16T16:19:56;38.92;;;23.15;;
13173;SDS011;6652;48.802;9.190;2023-04-16T16:22:25;37.17;;;23.20;;
13173;SDS011;6652;48.802;9.190;2023-04-16T16:24:53;43.67;;;24.00;;
13173;SDS011;6652;48.802;9.190;2023-04-16T16:27:21;39.28;;;23.30;;
13173;SDS011;6652;48.802;9.190;2023-04-16T16:29:48;39.92;;;24.63;;
13173;SDS011;6652;48.802;9.190;2023-04-16T16:32:15;39.05;;;23.58;;
13173;SDS011;6652;48.802;9.190;2023-04-16T16:34:42;39.13;;;23.92;;
13173;SDS011;6652;48.802;9.190;2023-04-16T16:37:10;41.40;;;24.08;;
13173;SDS011;6652;48.802;9.190;2023-04-16T16:39:37;48.08;;;25.05;;
13173;SDS011;6652;48.802;9.190;2023-04-16T16:42:04;45.78;;;24.90;;
13173;SDS011;6652;48.802;9.190;2023-04-16T16:44:33;47.78;;;25.75;;
13173;SDS011;6652;48.802;9.190;2023-04-16T16:46:59;52.53;;;26.05;;
13173;SDS011;6652;48.802;9.190;2023-04-16T16:49:27;42.40;;;26.55;;
13173;SDS011;6652;48.802;9.190;2023-04-16T16:51:54;46.72;;;26.60;;
13173;SDS011;6652;48.802;9.190;2023-04-16T16:54:22;48.53;;;26.80;;
13173;SDS011;6652;48.802;9.190;2023-04-16T16:56:49;45.35;;;25.75;;
13173;SDS011;6652;48.802;9.190;2023-04-16T16:59:17;40.72;;;24.05;;
13173;SDS011;6652;48.802;9.190;2023-04-16T17:01:44;46.95;;;26.02;;
13173;SDS011;6652;48.802;9.190;2023-04-16T17:04:11;44.38;;;25.77;;
13173;SDS011;6652;48.802;9.190;2023-04-16T17:06:37;44.63;;;25.63;;
13173;SDS011;6652;48.802;9.190;2023-04-16T17:09:04;42.05;;;25.95;;
13173;SDS011;6652;48.802;9.190;2023-04-16T17:11:33;50.95;;;27.30;;
13173;SDS011;6652;48.802;9.190;2023-04-16T17:14:00;44.63;;;25.50;;
13173;SDS011;6652;48.802;9.190;2023-04-16T17:16:26;46.00;;;26.35;;
13173;SDS011;6652;48.802;9.190;2023-04-16T17:18:53;51.78;;;28.35;;
13173;SDS011;6652;48.802;9.190;2023-04-16T17:21:21;44.50;;;26.77;;
13173;SDS011;6652;48.802;9.190;2023-04-16T17:23:48;45.67;;;26.52;;
13173;SDS011;6652;48.802;9.190;2023-04-16T17:26:14;47.13;;;27.73;;
13173;SDS011;6652;48.802;9.190;2023-04-16T17:28:46;50.20;;;27.70;;
13173;SDS011;6652;48.802;9.190;2023-04-16T17:31:17;43.67;;;26.20;;
13173;SDS011;6652;48.802;9.190;2023-04-16T17:33:44;50.20;;;27.95;;
13173;SDS011;6652;48.802;9.190;2023-04-16T17:36:14;54.60;;;28.75;;
13173;SDS011;6652;48.802;9.190;2023-04-16T17:38:44;55.17;;;29.45;;
13173;SDS011;6652;48.802;9.190;2023-04-16T17:41:11;54.47;;;28.95;;
13173;SDS011;6652;48.802;9.190;2023-04-16T17:43:48;50.13;;;29.38;;
13173;SDS011;6652;48.802;9.190;2023-04-16T17:46:19;51.75;;;28.20;;
13173;SDS011;6652;48.802;9.190;2023-04-16T17:48:53;47.70;;;27.92;;
13173;SDS011;6652;48.802;9.190;2023-04-16T17:51:32;49.72;;;27.08;;
13173;SDS011;6652;48.802;9.190;2023-04-16T17:54:01;48.38;;;28.05;;
13173;SDS011;6652;48.802;9.190;2023-04-16T17:56:41;52.08;;;29.30;;
13173;SDS011;6652;48.802;9.190;2023-04-16T18:02:38;52.42;;;28.63;;
13173;SDS011;6652;48.802;9.190;2023-04-16T18:05:17;52.17;;;29.40;;
13173;SDS011;6652;48.802;9.190;2023-04-16T18:07:53;52.83;;;29.20;;
13173;SDS011;6652;48.802;9.190;2023-04-16T18:10:37;52.90;;;29.65;;
13173;SDS011;6652;48.802;9.190;2023-04-16T18:13:04;52.35;;;29.33;;
13173;SDS011;6652;48.802;9.190;2023-04-16T18:15:37;57.90;;;30.45;;
13173;SDS011;6652;48.802;9.190;2023-04-16T18:18:05;53.22;;;31.08;;
13173;SDS011;6652;48.802;9.190;2023-04-16T18:20:33;56.78;;;30.80;;
13173;SDS011;6652;48.802;9.190;2023-04-16T18:23:00;58.78;;;29.65;;
13173;SDS011;6652;48.802;9.190;2023-04-16T18:25:33;57.65;;;32.13;;
13173;SDS011;6652;48.802;9.190;2023-04-16T18:28:36;56.50;;;32.22;;
13173;SDS011;6652;48.802;9.190;2023-04-16T18:31:16;55.13;;;32.97;;
13173;SDS011;6652;48.802;9.190;2023-04-16T18:33:53;61.47;;;31.73;;
13173;SDS011;6652;48.802;9.190;2023-04-16T18:43:27;51.92;;;30.60;;
13173;SDS011;6652;48.802;9.190;2023-04-16T18:50:06;49.97;;;28.90;;
13173;SDS011;6652;48.802;9.190;2023-04-16T18:56:30;49.75;;;28.45;;
13173;SDS011;6652;48.802;9.190;2023-04-16T19:00:10;57.95;;;31.13;;
13173;SDS011;6652;48.802;9.190;2023-04-16T19:03:30;47.00;;;28.02;;
13173;SDS011;6652;48.802;9.190;2023-04-16T19:09:36;43.78;;;26.55;;
13173;SDS011;6652;48.802;9.190;2023-04-16T19:16:04;46.55;;;28.27;;